Time;durP1;ratioP1;P1;durP2;ratioP2;P2;SDS_P1;SDS_P2;PMS_P1;PMS_P2;Temp;Humidity;BMP_temperature;BMP_pressure;BME280_temperature;BME280_humidity;BME280_pressure;Samples;Min_cycle;Max_cycle;Signal;HPM_P1;HPM_P2
2021/12/31 00:00:33;;;;;;;1.40;1.30;;;20.90;55.00;;;;;;4959331;28;20226;-70
2021/12/31 00:02:59;;;;;;;1.40;1.30;;;21.00;55.00;;;;;;4975289;28;20186;-70
2021/12/31 00:05:25;;;;;;;2.92;1.70;;;21.00;55.00;;;;;;4975450;28;20200;-70
2021/12/31 00:07:50;;;;;;;2.10;1.52;;;21.00;55.00;;;;;;4975622;28;20188;-70
2021/12/31 00:10:16;;;;;;;1.83;1.70;;;21.00;55.00;;;;;;4975074;28;20209;-70
2021/12/31 00:12:43;;;;;;;1.90;1.65;;;20.90;55.00;;;;;;4975937;28;20312;-70
2021/12/31 00:15:11;;;;;;;1.50;1.25;;;21.00;55.00;;;;;;4977402;28;20182;-70
2021/12/31 00:17:38;;;;;;;1.67;1.50;;;20.90;55.00;;;;;;4991228;28;20184;-70
2021/12/31 00:20:12;;;;;;;1.45;1.33;;;20.90;55.00;;;;;;4975437;28;20209;-70
2021/12/31 00:25:23;;;;;;;1.65;1.48;;;20.90;55.00;;;;;;4976252;28;20181;-70
2021/12/31 00:27:49;;;;;;;1.38;1.27;;;20.90;55.00;;;;;;4974948;28;20181;-70
2021/12/31 00:30:16;;;;;;;1.25;1.15;;;20.90;55.00;;;;;;4991014;28;20209;-69
2021/12/31 00:32:42;;;;;;;1.25;1.15;;;20.90;55.00;;;;;;4990965;28;20213;-70
2021/12/31 00:35:09;;;;;;;1.90;1.50;;;20.90;55.00;;;;;;4990924;28;20177;-71
2021/12/31 00:37:38;;;;;;;1.60;1.35;;;20.90;54.90;;;;;;4991208;28;20194;-70
2021/12/31 00:40:11;;;;;;;1.30;1.20;;;20.90;54.90;;;;;;4974995;28;20205;-70
2021/12/31 00:42:37;;;;;;;1.55;1.30;;;20.90;54.90;;;;;;4974850;28;20182;-70
2021/12/31 00:45:07;;;;;;;2.10;1.60;;;20.90;55.00;;;;;;4966138;28;20597;-70
2021/12/31 00:47:32;;;;;;;1.50;1.40;;;21.00;55.00;;;;;;4974614;28;20209;-69
2021/12/31 00:49:58;;;;;;;1.30;1.17;;;20.90;54.90;;;;;;4974875;28;20284;-70
2021/12/31 00:52:24;;;;;;;1.73;1.60;;;20.90;54.90;;;;;;4958443;28;20225;-70
2021/12/31 00:54:50;;;;;;;1.80;1.52;;;20.90;54.90;;;;;;4989975;28;20181;-70
2021/12/31 00:57:16;;;;;;;1.35;1.25;;;20.90;54.80;;;;;;4974562;28;20270;-70
2021/12/31 00:59:41;;;;;;;1.30;1.20;;;20.90;54.80;;;;;;4974511;28;20218;-70
2021/12/31 01:02:10;;;;;;;1.23;1.13;;;20.90;54.80;;;;;;4990224;28;20193;-70
2021/12/31 01:04:36;;;;;;;2.35;1.40;;;20.90;54.80;;;;;;4990371;28;20177;-70
2021/12/31 01:07:02;;;;;;;1.50;1.27;;;20.90;54.80;;;;;;4974508;28;20285;-69
2021/12/31 01:09:30;;;;;;;2.05;1.40;;;20.90;54.80;;;;;;4974315;28;20211;-71
2021/12/31 01:11:57;;;;;;;1.35;1.25;;;20.90;54.80;;;;;;4990580;28;20783;-70
2021/12/31 01:14:32;;;;;;;1.38;1.27;;;20.90;54.80;;;;;;4968942;28;20219;-71
2021/12/31 01:17:03;;;;;;;2.63;1.33;;;20.90;54.80;;;;;;4986942;28;20185;-70
2021/12/31 01:22:25;;;;;;;1.38;1.27;;;20.90;54.80;;;;;;4975326;28;20675;-71
2021/12/31 01:24:51;;;;;;;1.13;1.02;;;20.90;54.70;;;;;;4989899;28;20190;-71
2021/12/31 01:27:17;;;;;;;1.33;1.13;;;20.90;54.70;;;;;;4974191;28;20182;-72
2021/12/31 01:29:43;;;;;;;1.40;1.30;;;20.90;54.70;;;;;;4990854;28;20232;-70
2021/12/31 01:32:10;;;;;;;1.40;1.30;;;20.90;54.60;;;;;;4972677;28;20573;-70
2021/12/31 01:34:37;;;;;;;1.10;1.10;;;20.90;54.70;;;;;;4973787;28;20612;-69
2021/12/31 01:37:03;;;;;;;1.35;1.25;;;20.90;54.60;;;;;;4974085;28;20278;-70
2021/12/31 01:39:29;;;;;;;1.42;1.20;;;20.90;54.60;;;;;;4973863;28;20225;-70
2021/12/31 01:41:58;;;;;;;1.05;0.90;;;20.90;54.60;;;;;;4990255;28;20224;-70
2021/12/31 01:44:35;;;;;;;1.20;1.10;;;20.90;54.60;;;;;;4984595;28;20284;-71
2021/12/31 01:47:09;;;;;;;1.20;1.10;;;20.90;54.60;;;;;;4957224;28;20288;-69
2021/12/31 01:49:38;;;;;;;1.30;1.20;;;20.90;54.60;;;;;;4969067;28;20205;-69
2021/12/31 01:52:07;;;;;;;1.20;1.10;;;20.90;54.60;;;;;;4959831;28;20213;-70
2021/12/31 01:54:35;;;;;;;1.20;1.10;;;20.80;54.50;;;;;;4973614;28;20189;-70
2021/12/31 01:57:04;;;;;;;1.15;1.05;;;20.90;54.60;;;;;;4973541;28;20190;-70
2021/12/31 01:59:31;;;;;;;1.25;1.20;;;20.90;54.60;;;;;;4957262;28;20237;-70
2021/12/31 02:01:58;;;;;;;1.00;1.00;;;20.80;54.40;;;;;;4973060;28;20693;-70
2021/12/31 02:04:23;;;;;;;1.63;1.35;;;20.80;54.40;;;;;;4974377;28;20212;-70
2021/12/31 02:06:49;;;;;;;1.50;1.10;;;20.90;54.50;;;;;;4957184;28;20194;-69
2021/12/31 02:09:15;;;;;;;1.23;1.13;;;20.90;54.40;;;;;;4973340;28;20193;-70
2021/12/31 02:11:41;;;;;;;1.20;1.10;;;20.80;54.30;;;;;;4972823;28;20221;-70
2021/12/31 02:14:08;;;;;;;1.33;1.23;;;20.80;54.30;;;;;;4972985;28;20188;-70
2021/12/31 02:16:34;;;;;;;1.20;1.10;;;20.90;54.40;;;;;;4956301;28;20200;-69
2021/12/31 02:19:11;;;;;;;0.90;0.90;;;20.80;54.30;;;;;;4957016;28;20193;-70
2021/12/31 02:21:41;;;;;;;1.15;1.10;;;20.90;54.40;;;;;;4980875;28;20209;-70
2021/12/31 02:24:07;;;;;;;2.22;1.20;;;20.80;54.20;;;;;;4973089;28;20181;-70
2021/12/31 02:26:33;;;;;;;1.17;1.00;;;20.90;54.70;;;;;;4988901;28;20209;-69
2021/12/31 02:28:59;;;;;;;1.52;1.00;;;20.80;54.30;;;;;;4972841;28;20190;-70
2021/12/31 02:31:24;;;;;;;1.10;1.00;;;20.80;54.30;;;;;;4988727;28;20231;-70
2021/12/31 02:33:50;;;;;;;1.17;1.08;;;20.80;54.30;;;;;;4988842;28;20190;-70
2021/12/31 02:36:17;;;;;;;1.48;1.00;;;20.80;54.30;;;;;;4972802;28;20193;-69
2021/12/31 02:38:46;;;;;;;1.15;1.10;;;20.80;54.30;;;;;;4973983;28;20185;-70
2021/12/31 02:41:12;;;;;;;1.20;1.08;;;20.80;54.20;;;;;;4956461;28;20763;-70
2021/12/31 02:43:39;;;;;;;1.23;1.00;;;20.80;54.20;;;;;;4972770;28;20284;-70
2021/12/31 02:46:05;;;;;;;0.88;0.88;;;20.80;54.20;;;;;;4956313;28;20193;-70
2021/12/31 02:48:31;;;;;;;1.00;0.95;;;20.80;54.20;;;;;;4973488;28;20189;-70
2021/12/31 02:51:00;;;;;;;1.27;1.17;;;20.80;54.10;;;;;;4953270;28;20214;-70
2021/12/31 02:53:37;;;;;;;1.17;1.05;;;20.80;54.20;;;;;;4956716;28;20197;-70
2021/12/31 02:56:07;;;;;;;1.30;1.20;;;20.80;54.10;;;;;;4956273;28;20269;-70
2021/12/31 02:58:34;;;;;;;0.90;0.90;;;20.80;54.10;;;;;;4972428;28;20204;-70
2021/12/31 03:01:01;;;;;;;1.27;1.10;;;20.80;54.00;;;;;;4972418;28;20198;-70
2021/12/31 03:03:30;;;;;;;1.42;1.00;;;20.80;54.00;;;;;;4989599;28;20247;-70
2021/12/31 03:05:57;;;;;;;1.30;1.20;;;20.80;54.00;;;;;;4975234;28;20177;-70
2021/12/31 03:08:29;;;;;;;1.70;1.20;;;20.80;53.90;;;;;;4991952;28;20185;-70
2021/12/31 03:10:56;;;;;;;0.93;0.93;;;20.80;54.00;;;;;;4991578;28;20221;-70
2021/12/31 03:13:24;;;;;;;0.88;0.88;;;20.80;54.00;;;;;;4991898;28;20687;-70
2021/12/31 03:15:53;;;;;;;1.50;1.17;;;20.80;54.00;;;;;;4991757;28;20177;-69
2021/12/31 03:18:20;;;;;;;0.90;0.90;;;20.80;54.00;;;;;;4972379;28;20553;-69
2021/12/31 03:23:52;;;;;;;1.20;1.10;;;20.80;54.00;;;;;;4948538;29;20254;-70
2021/12/31 03:26:20;;;;;;;1.17;1.13;;;20.80;53.90;;;;;;4954064;29;20234;-69
2021/12/31 03:28:46;;;;;;;1.17;1.13;;;20.80;53.90;;;;;;4957022;29;20223;-70
2021/12/31 03:31:11;;;;;;;1.42;1.27;;;20.80;53.80;;;;;;4956662;29;20593;-70
2021/12/31 03:33:38;;;;;;;1.33;1.23;;;20.80;53.80;;;;;;4956400;28;20249;-70
2021/12/31 03:36:03;;;;;;;1.20;1.10;;;20.80;53.80;;;;;;4971407;28;20280;-70
2021/12/31 03:38:29;;;;;;;1.73;1.20;;;20.80;53.80;;;;;;4985191;28;20281;-70
2021/12/31 03:40:55;;;;;;;1.40;1.30;;;20.80;53.80;;;;;;4976114;28;20201;-70
2021/12/31 03:43:21;;;;;;;1.00;1.00;;;20.80;53.80;;;;;;4977100;28;20604;-70
2021/12/31 03:45:50;;;;;;;1.02;0.93;;;20.80;53.90;;;;;;4991678;28;20193;-69
2021/12/31 03:48:19;;;;;;;1.20;1.10;;;20.70;53.70;;;;;;4991862;28;20185;-70
2021/12/31 03:50:46;;;;;;;1.20;1.10;;;20.80;53.80;;;;;;4959654;28;20216;-70
2021/12/31 03:53:14;;;;;;;1.10;1.00;;;20.80;53.80;;;;;;4992082;28;20213;-69
2021/12/31 03:55:41;;;;;;;1.10;1.00;;;20.80;53.80;;;;;;4959341;28;20653;-70
2021/12/31 03:58:06;;;;;;;1.10;1.10;;;20.80;53.80;;;;;;4976716;28;20170;-70
2021/12/31 04:00:32;;;;;;;1.25;1.10;;;20.80;53.80;;;;;;4991535;28;20252;-70
2021/12/31 04:03:09;;;;;;;1.00;1.00;;;20.80;53.80;;;;;;4991645;28;20189;-70
2021/12/31 04:05:38;;;;;;;1.48;1.38;;;20.80;53.80;;;;;;4964049;28;20198;-70
2021/12/31 04:08:05;;;;;;;0.95;0.95;;;20.80;53.70;;;;;;4969257;28;20194;-70
2021/12/31 04:10:31;;;;;;;0.90;0.90;;;20.80;53.70;;;;;;4975449;28;20217;-70
2021/12/31 04:12:58;;;;;;;1.30;1.20;;;20.80;53.70;;;;;;4959331;28;20221;-70
2021/12/31 04:15:24;;;;;;;0.95;0.95;;;20.80;53.60;;;;;;4975333;28;20192;-70
2021/12/31 04:17:49;;;;;;;0.80;0.80;;;20.80;53.70;;;;;;4975318;28;20190;-70
2021/12/31 04:20:35;;;;;;;1.10;1.00;;;20.80;53.60;;;;;;4975163;28;20216;-70
2021/12/31 04:23:07;;;;;;;1.33;1.23;;;20.80;53.60;;;;;;4975418;28;20277;-70
2021/12/31 04:25:32;;;;;;;1.20;1.00;;;20.80;53.60;;;;;;4958791;28;20189;-69
2021/12/31 04:27:58;;;;;;;1.40;1.20;;;20.70;53.60;;;;;;4975063;28;20244;-70
2021/12/31 04:30:24;;;;;;;0.90;0.90;;;20.80;53.70;;;;;;4975030;28;20252;-70
2021/12/31 04:32:50;;;;;;;0.80;0.80;;;20.70;53.60;;;;;;4975038;28;20304;-71
2021/12/31 04:35:18;;;;;;;1.13;1.02;;;20.80;53.60;;;;;;4974637;28;20269;-69
2021/12/31 04:37:44;;;;;;;0.90;0.90;;;20.70;53.50;;;;;;4983040;28;20192;-70
2021/12/31 04:40:12;;;;;;;0.80;0.80;;;20.70;53.50;;;;;;4976025;28;20205;-70
2021/12/31 04:42:44;;;;;;;1.90;1.10;;;20.80;53.60;;;;;;4991085;28;20189;-70
2021/12/31 04:45:12;;;;;;;0.90;0.90;;;20.80;53.60;;;;;;4975743;28;20180;-70
2021/12/31 04:47:39;;;;;;;0.80;0.80;;;20.70;54.10;;;;;;4958722;28;20186;-70
2021/12/31 04:50:07;;;;;;;0.80;0.80;;;20.70;53.50;;;;;;4974852;28;20213;-70
2021/12/31 04:52:32;;;;;;;1.15;1.05;;;20.80;53.50;;;;;;4974657;28;20576;-70
2021/12/31 04:54:58;;;;;;;1.00;1.00;;;20.80;53.60;;;;;;4974441;28;20187;-70
2021/12/31 04:57:26;;;;;;;0.98;0.98;;;20.80;53.50;;;;;;4958412;28;20190;-70
2021/12/31 04:59:52;;;;;;;1.20;1.10;;;20.80;53.50;;;;;;4974594;28;20225;-70
2021/12/31 05:02:18;;;;;;;1.02;0.93;;;20.80;53.50;;;;;;4974390;28;20657;-69
2021/12/31 05:04:44;;;;;;;1.40;0.98;;;20.80;53.40;;;;;;4974353;28;20198;-70
2021/12/31 05:07:10;;;;;;;0.90;0.90;;;20.80;53.40;;;;;;4981014;28;20189;-70
2021/12/31 05:09:36;;;;;;;0.80;0.80;;;20.70;53.50;;;;;;4984655;28;20193;-70
2021/12/31 05:12:04;;;;;;;0.80;0.80;;;20.80;53.50;;;;;;4975562;28;20217;-69
2021/12/31 05:14:31;;;;;;;1.02;0.90;;;20.70;53.40;;;;;;4974351;28;20178;-70
2021/12/31 05:16:58;;;;;;;0.80;0.80;;;20.80;53.50;;;;;;4990643;28;20190;-70
2021/12/31 05:19:25;;;;;;;0.90;0.90;;;20.70;53.40;;;;;;4990696;28;20182;-70
2021/12/31 05:21:51;;;;;;;0.80;0.80;;;20.70;53.40;;;;;;4989824;28;20189;-70
2021/12/31 05:24:17;;;;;;;0.73;0.73;;;20.70;53.40;;;;;;4991850;28;20192;-70
2021/12/31 05:26:44;;;;;;;0.90;0.90;;;20.70;53.50;;;;;;4990393;28;20261;-70
2021/12/31 05:29:10;;;;;;;0.70;0.70;;;20.80;53.60;;;;;;4975149;28;20280;-72
2021/12/31 05:31:36;;;;;;;0.70;0.70;;;20.70;53.50;;;;;;4989754;28;20228;-71
2021/12/31 05:34:02;;;;;;;0.80;0.80;;;20.70;53.50;;;;;;4965300;28;20189;-71
2021/12/31 05:36:28;;;;;;;0.80;0.80;;;20.80;53.60;;;;;;4957948;28;20193;-71
2021/12/31 05:38:54;;;;;;;0.95;0.93;;;20.70;53.40;;;;;;4973977;28;20630;-71
2021/12/31 05:41:19;;;;;;;1.00;1.00;;;20.70;53.40;;;;;;4957294;28;20210;-71
2021/12/31 05:43:45;;;;;;;1.05;0.85;;;20.80;53.50;;;;;;4973837;28;20265;-72
2021/12/31 05:46:11;;;;;;;1.38;1.27;;;20.80;53.50;;;;;;4973342;28;20244;-71
2021/12/31 05:48:37;;;;;;;1.52;1.05;;;20.70;53.50;;;;;;4980130;28;20198;-71
2021/12/31 05:51:03;;;;;;;1.10;1.00;;;20.70;53.50;;;;;;4959604;28;20216;-72
2021/12/31 05:53:30;;;;;;;0.90;0.90;;;20.70;53.60;;;;;;4958029;28;20688;-71
2021/12/31 05:55:56;;;;;;;1.00;1.00;;;20.80;53.60;;;;;;4973284;28;20181;-72
2021/12/31 05:58:21;;;;;;;1.02;1.00;;;20.70;53.50;;;;;;4974683;28;20178;-71
2021/12/31 06:00:48;;;;;;;1.30;1.20;;;20.70;53.50;;;;;;4974635;28;20213;-71
2021/12/31 06:03:14;;;;;;;1.20;1.10;;;20.70;53.50;;;;;;4972989;28;20190;-71
2021/12/31 06:05:39;;;;;;;1.00;1.00;;;20.70;53.50;;;;;;4972954;28;20196;-72
2021/12/31 06:08:05;;;;;;;0.90;0.90;;;20.70;53.50;;;;;;4973297;28;20196;-72
2021/12/31 06:10:32;;;;;;;0.93;0.93;;;20.70;53.50;;;;;;4956775;28;20256;-72
2021/12/31 06:13:00;;;;;;;0.95;0.82;;;20.70;53.60;;;;;;4956888;28;20656;-72
2021/12/31 06:15:28;;;;;;;1.10;1.10;;;20.70;53.60;;;;;;4956780;28;20197;-72
2021/12/31 06:17:55;;;;;;;0.98;0.98;;;20.70;53.60;;;;;;4977402;28;20228;-71
2021/12/31 06:20:21;;;;;;;1.05;1.00;;;20.70;53.60;;;;;;4929788;29;20206;-72
2021/12/31 06:22:47;;;;;;;0.80;0.80;;;20.80;53.70;;;;;;4954126;29;20237;-71
2021/12/31 06:25:12;;;;;;;0.93;0.90;;;20.70;53.60;;;;;;4969518;28;20618;-72
2021/12/31 06:27:38;;;;;;;0.90;0.90;;;20.70;53.60;;;;;;4954742;29;20191;-71
2021/12/31 06:30:05;;;;;;;0.90;0.90;;;20.70;53.60;;;;;;4969634;28;20214;-72
2021/12/31 06:32:31;;;;;;;1.20;1.10;;;20.80;53.70;;;;;;4969078;28;20300;-71
2021/12/31 06:34:56;;;;;;;1.08;1.02;;;20.70;53.60;;;;;;4953300;28;20210;-71
2021/12/31 06:37:22;;;;;;;0.82;0.82;;;20.70;53.60;;;;;;4969590;28;20189;-71
2021/12/31 06:39:48;;;;;;;1.00;1.00;;;20.70;53.60;;;;;;4953374;29;20215;-71
2021/12/31 06:42:14;;;;;;;0.95;0.95;;;20.80;53.70;;;;;;4953503;28;20197;-71
2021/12/31 06:44:40;;;;;;;0.90;0.90;;;20.70;53.60;;;;;;4953229;28;20204;-71
2021/12/31 06:47:07;;;;;;;1.00;0.90;;;20.70;53.70;;;;;;4962543;28;20200;-71
2021/12/31 06:49:33;;;;;;;1.30;1.20;;;20.80;53.70;;;;;;4950195;28;20213;-71
2021/12/31 06:51:59;;;;;;;1.95;1.27;;;20.70;53.70;;;;;;4987845;28;20218;-71
2021/12/31 06:54:26;;;;;;;1.50;1.40;;;20.70;53.70;;;;;;4988596;28;20192;-71
2021/12/31 06:56:51;;;;;;;1.35;1.25;;;20.80;53.80;;;;;;4973748;28;20185;-71
2021/12/31 06:59:17;;;;;;;1.38;1.27;;;20.70;53.70;;;;;;4956598;28;20186;-71
2021/12/31 07:01:43;;;;;;;1.50;1.40;;;20.70;53.70;;;;;;4988621;28;20209;-71
2021/12/31 07:04:10;;;;;;;1.50;1.40;;;20.70;53.70;;;;;;4972059;28;20186;-71
2021/12/31 07:06:36;;;;;;;1.48;1.38;;;20.70;53.70;;;;;;4988711;28;20197;-72
2021/12/31 07:09:02;;;;;;;1.27;1.17;;;20.70;53.70;;;;;;4988585;28;20194;-71
2021/12/31 07:11:28;;;;;;;1.30;1.20;;;20.70;53.70;;;;;;4972077;28;20232;-72
2021/12/31 07:13:53;;;;;;;0.90;0.90;;;20.70;53.70;;;;;;4972457;28;20181;-71
2021/12/31 07:16:19;;;;;;;0.93;0.93;;;20.80;54.40;;;;;;4967837;28;20182;-71
2021/12/31 07:18:46;;;;;;;1.20;1.10;;;20.70;53.80;;;;;;4947918;28;20189;-71
2021/12/31 07:21:11;;;;;;;0.90;0.90;;;20.70;53.70;;;;;;4988197;28;20205;-72
2021/12/31 07:23:37;;;;;;;0.98;0.98;;;20.70;53.70;;;;;;4972210;28;20182;-72
2021/12/31 07:26:03;;;;;;;1.20;1.10;;;20.70;53.80;;;;;;4978078;28;20182;-72
2021/12/31 07:28:28;;;;;;;0.88;0.88;;;20.80;53.80;;;;;;4972152;28;20264;-72
2021/12/31 07:30:55;;;;;;;1.17;1.10;;;20.70;53.70;;;;;;4968461;28;20292;-71
2021/12/31 07:33:25;;;;;;;0.90;0.90;;;20.80;53.80;;;;;;4939793;28;20220;-72
2021/12/31 07:35:53;;;;;;;1.10;1.10;;;20.70;53.70;;;;;;4966514;28;20561;-71
2021/12/31 07:38:22;;;;;;;0.80;0.80;;;20.70;53.70;;;;;;4972809;28;20182;-71
2021/12/31 07:40:51;;;;;;;1.20;1.10;;;20.70;53.80;;;;;;4971917;28;20209;-72
2021/12/31 07:43:19;;;;;;;1.30;1.20;;;20.70;53.80;;;;;;4971139;28;20190;-71
2021/12/31 07:45:45;;;;;;;1.30;1.20;;;20.70;53.70;;;;;;4971613;28;20568;-72
2021/12/31 07:48:11;;;;;;;1.70;1.60;;;20.70;53.80;;;;;;4972054;28;20288;-72
2021/12/31 07:50:38;;;;;;;1.50;1.40;;;20.70;53.80;;;;;;4972041;28;20213;-71
2021/12/31 07:53:05;;;;;;;1.55;1.45;;;20.70;53.80;;;;;;4972239;28;20214;-72
2021/12/31 07:55:32;;;;;;;1.60;1.50;;;20.80;53.80;;;;;;4967143;28;20235;-72
2021/12/31 07:57:58;;;;;;;1.30;1.20;;;20.70;53.80;;;;;;4971694;28;20186;-72
2021/12/31 08:00:24;;;;;;;1.50;1.40;;;20.70;53.80;;;;;;4954119;28;20602;-72
2021/12/31 08:02:50;;;;;;;1.00;1.00;;;20.70;53.80;;;;;;4972739;28;20208;-72
2021/12/31 08:05:16;;;;;;;1.20;1.10;;;20.70;53.80;;;;;;4975397;28;20201;-73
2021/12/31 08:07:42;;;;;;;0.90;0.90;;;20.70;53.80;;;;;;4959569;28;20178;-72
2021/12/31 08:10:08;;;;;;;1.30;1.20;;;20.70;53.80;;;;;;4975234;28;20213;-73
2021/12/31 08:12:37;;;;;;;1.20;1.20;;;20.80;53.80;;;;;;4975522;28;20259;-72
2021/12/31 08:15:05;;;;;;;1.17;1.10;;;20.70;53.80;;;;;;4975081;28;20270;-72
2021/12/31 08:17:31;;;;;;;1.10;1.02;;;20.70;53.80;;;;;;4975112;28;20189;-72
2021/12/31 08:19:56;;;;;;;0.98;0.98;;;20.70;53.80;;;;;;4975000;28;20205;-72
2021/12/31 08:22:23;;;;;;;1.10;1.00;;;20.70;53.90;;;;;;4975118;28;20193;-73
2021/12/31 08:24:50;;;;;;;1.20;1.17;;;20.70;53.80;;;;;;4991347;28;20193;-74
2021/12/31 08:27:16;;;;;;;0.90;0.90;;;20.80;54.00;;;;;;4975445;28;20190;-73
2021/12/31 08:29:41;;;;;;;1.00;1.00;;;20.70;53.80;;;;;;4975155;28;20189;-74
2021/12/31 08:32:07;;;;;;;1.00;1.00;;;20.70;53.80;;;;;;4959074;28;20220;-74
2021/12/31 08:34:33;;;;;;;1.23;1.15;;;20.70;53.80;;;;;;4990663;28;20193;-73
2021/12/31 08:36:59;;;;;;;1.33;1.23;;;20.70;53.90;;;;;;4991176;28;20243;-73
2021/12/31 08:39:25;;;;;;;1.40;1.30;;;20.70;53.80;;;;;;4972336;28;20209;-72
2021/12/31 08:41:51;;;;;;;1.60;1.50;;;20.70;53.90;;;;;;4959068;28;20209;-73
2021/12/31 08:44:17;;;;;;;1.70;1.60;;;20.70;53.80;;;;;;4966091;28;20213;-73
2021/12/31 08:46:44;;;;;;;1.63;1.52;;;20.80;54.00;;;;;;4979874;28;20237;-74
2021/12/31 08:49:11;;;;;;;1.83;1.73;;;20.80;54.00;;;;;;4958582;28;20193;-74
2021/12/31 08:51:37;;;;;;;2.15;1.73;;;20.70;53.90;;;;;;4974769;28;20288;-73
2021/12/31 08:54:03;;;;;;;1.70;1.60;;;20.80;53.90;;;;;;4974718;28;20186;-72
2021/12/31 08:56:29;;;;;;;1.70;1.50;;;20.70;53.90;;;;;;4975019;28;20209;-73
2021/12/31 08:58:55;;;;;;;1.25;1.20;;;20.80;54.00;;;;;;4974586;28;20213;-73
2021/12/31 09:01:21;;;;;;;1.23;1.02;;;20.80;54.00;;;;;;4974507;28;20299;-73
2021/12/31 09:03:46;;;;;;;1.27;1.17;;;20.70;53.90;;;;;;4974287;28;20197;-73
2021/12/31 09:06:17;;;;;;;1.65;1.10;;;20.70;53.90;;;;;;4973881;28;20200;-74
2021/12/31 09:08:44;;;;;;;1.30;1.00;;;20.80;53.90;;;;;;4993347;28;20271;-74
2021/12/31 09:11:09;;;;;;;0.88;0.88;;;20.80;53.90;;;;;;4993891;28;20223;-74
2021/12/31 09:13:35;;;;;;;1.40;1.30;;;20.80;53.90;;;;;;4990623;28;20194;-74
2021/12/31 09:16:01;;;;;;;1.75;1.13;;;20.70;53.80;;;;;;4965008;28;20669;-74
2021/12/31 09:18:27;;;;;;;1.20;1.20;;;20.80;53.90;;;;;;4975223;28;20182;-74
2021/12/31 09:20:53;;;;;;;1.70;1.05;;;20.80;54.00;;;;;;4990345;28;20316;-73
2021/12/31 09:23:20;;;;;;;1.33;1.23;;;20.80;54.00;;;;;;4981161;28;20194;-74
2021/12/31 09:25:45;;;;;;;1.33;1.23;;;20.80;53.90;;;;;;4977464;28;20194;-73
2021/12/31 09:28:11;;;;;;;1.63;1.48;;;20.80;53.90;;;;;;4973980;28;20193;-73
2021/12/31 09:30:37;;;;;;;1.75;1.65;;;20.80;54.00;;;;;;4974286;28;20213;-74
2021/12/31 09:33:03;;;;;;;1.88;1.77;;;20.80;54.00;;;;;;4973824;28;20271;-74
2021/12/31 09:35:29;;;;;;;1.90;1.70;;;20.80;54.50;;;;;;4973722;28;20186;-73
2021/12/31 09:37:56;;;;;;;2.20;2.10;;;20.80;53.90;;;;;;4973733;28;20181;-74
2021/12/31 09:40:22;;;;;;;1.88;1.77;;;20.80;54.00;;;;;;4974147;28;20205;-76
2021/12/31 09:43:08;;;;;;;2.10;1.90;;;20.80;54.00;;;;;;4973887;28;20185;-73
2021/12/31 09:45:40;;;;;;;3.00;1.63;;;20.80;54.00;;;;;;4957459;28;20268;-73
2021/12/31 09:48:08;;;;;;;1.55;1.45;;;20.80;54.00;;;;;;4973451;28;20279;-74
2021/12/31 09:50:38;;;;;;;1.48;1.17;;;20.80;54.00;;;;;;4973701;28;20273;-73
2021/12/31 09:53:06;;;;;;;1.60;1.50;;;20.80;54.00;;;;;;4973328;28;20651;-73
2021/12/31 09:55:41;;;;;;;1.40;1.30;;;20.80;54.00;;;;;;4981513;28;20196;-74
2021/12/31 09:58:11;;;;;;;1.77;1.50;;;20.80;54.00;;;;;;4973837;28;20704;-74
2021/12/31 10:00:43;;;;;;;2.17;1.50;;;20.80;54.00;;;;;;4989696;28;20214;-74
2021/12/31 10:03:25;;;;;;;1.50;1.40;;;20.80;54.00;;;;;;4974478;28;20184;-73
2021/12/31 10:05:57;;;;;;;1.60;1.50;;;20.80;54.00;;;;;;4974312;28;20196;-73
2021/12/31 10:08:38;;;;;;;2.05;1.85;;;20.90;54.10;;;;;;4989234;28;20318;-72
2021/12/31 10:11:05;;;;;;;1.75;1.65;;;20.80;54.00;;;;;;4974597;28;20275;-73
2021/12/31 10:13:33;;;;;;;2.42;2.10;;;20.80;54.00;;;;;;4973294;28;20300;-73
2021/12/31 10:15:59;;;;;;;1.50;1.40;;;20.80;54.00;;;;;;4989121;28;20204;-74
2021/12/31 10:18:43;;;;;;;1.38;1.27;;;20.90;54.10;;;;;;4989145;28;20178;-73
2021/12/31 10:21:09;;;;;;;2.13;1.50;;;20.80;54.00;;;;;;4973176;28;20198;-73
2021/12/31 10:23:39;;;;;;;2.05;1.50;;;20.90;54.10;;;;;;4974066;28;20732;-73
2021/12/31 10:26:14;;;;;;;2.13;1.77;;;20.90;54.10;;;;;;4980723;28;20205;-74
2021/12/31 10:28:57;;;;;;;1.80;1.42;;;20.80;54.00;;;;;;4972948;28;20582;-74
2021/12/31 10:31:24;;;;;;;1.70;1.60;;;20.90;54.10;;;;;;4974034;28;20206;-73
2021/12/31 10:33:50;;;;;;;1.90;1.80;;;20.90;54.10;;;;;;4972623;28;20276;-72
2021/12/31 10:36:38;;;;;;;1.85;1.75;;;20.90;54.20;;;;;;4972576;28;20264;-74
2021/12/31 10:39:23;;;;;;;2.50;2.03;;;20.90;54.20;;;;;;4989161;28;20189;-74
2021/12/31 10:41:59;;;;;;;1.65;1.50;;;20.80;54.10;;;;;;4970637;28;20212;-72
2021/12/31 10:44:49;;;;;;;1.60;1.50;;;20.80;54.10;;;;;;4956676;28;20208;-73
2021/12/31 10:47:19;;;;;;;1.98;1.60;;;20.80;54.00;;;;;;4973813;28;20174;-72
2021/12/31 10:50:00;;;;;;;1.83;1.70;;;20.90;54.20;;;;;;4956581;28;20182;-73
2021/12/31 10:52:40;;;;;;;2.13;1.70;;;20.90;54.20;;;;;;4972318;28;20659;-71
2021/12/31 10:57:44;;;;;;;2.50;2.30;;;20.90;54.20;;;;;;4988910;28;20276;-72
2021/12/31 11:00:12;;;;;;;2.78;2.10;;;20.90;54.20;;;;;;4988501;28;20201;-72
2021/12/31 11:02:38;;;;;;;1.77;1.52;;;20.90;54.30;;;;;;4973504;28;20213;-72
2021/12/31 11:05:06;;;;;;;1.75;1.63;;;20.90;54.30;;;;;;4972038;28;20186;-72
2021/12/31 11:07:34;;;;;;;2.63;1.70;;;20.90;54.30;;;;;;4972462;28;20189;-72
2021/12/31 11:10:04;;;;;;;1.80;1.60;;;20.90;54.30;;;;;;4956272;28;20209;-74
2021/12/31 11:12:31;;;;;;;1.60;1.50;;;20.90;54.30;;;;;;4972618;28;20292;-72
2021/12/31 11:14:58;;;;;;;1.90;1.58;;;20.90;54.40;;;;;;4972155;28;20196;-72
2021/12/31 11:17:24;;;;;;;1.50;1.40;;;20.90;54.40;;;;;;4972478;28;20276;-73
2021/12/31 11:19:52;;;;;;;1.75;1.50;;;20.90;54.40;;;;;;4950675;28;20193;-72
2021/12/31 11:22:23;;;;;;;1.45;1.35;;;20.90;54.40;;;;;;4971892;28;20193;-72
2021/12/31 11:24:49;;;;;;;2.00;1.30;;;20.90;54.40;;;;;;4949572;28;20284;-73
2021/12/31 11:27:35;;;;;;;1.30;1.20;;;20.90;54.40;;;;;;4972422;28;20286;-73
2021/12/31 11:30:03;;;;;;;2.00;1.42;;;20.90;54.40;;;;;;4965366;28;20213;-73
2021/12/31 11:32:47;;;;;;;4.70;2.08;;;20.90;54.40;;;;;;4988627;28;20236;-74
2021/12/31 11:35:36;;;;;;;2.10;1.70;;;20.90;54.50;;;;;;5022441;22;20237;-70
2021/12/31 11:38:13;;;;;;;1.38;1.27;;;20.90;54.90;;;;;;4981028;28;20185;-70
2021/12/31 11:40:50;;;;;;;1.60;1.50;;;20.90;54.90;;;;;;4995335;28;20181;-70
2021/12/31 11:43:25;;;;;;;1.75;1.60;;;20.90;54.90;;;;;;4972513;28;20188;-71
2021/12/31 11:46:12;;;;;;;2.08;1.58;;;20.90;54.80;;;;;;4975371;28;20209;-71
2021/12/31 11:48:44;;;;;;;4.10;2.00;;;20.90;54.80;;;;;;4972821;28;20189;-70
2021/12/31 11:51:18;;;;;;;5.65;1.40;;;20.90;54.80;;;;;;5003706;28;20217;-70
2021/12/31 11:53:56;;;;;;;2.33;1.60;;;20.90;54.80;;;;;;4996392;28;20326;-70
2021/12/31 11:56:37;;;;;;;1.85;1.58;;;20.90;54.80;;;;;;4994849;28;20212;-70
2021/12/31 11:59:16;;;;;;;1.75;1.23;;;20.90;54.90;;;;;;5011501;28;20192;-70
2021/12/31 12:01:43;;;;;;;1.42;1.33;;;20.90;54.80;;;;;;4996390;28;20181;-70
2021/12/31 12:04:31;;;;;;;2.00;1.30;;;20.90;54.80;;;;;;5011263;28;20188;-70
2021/12/31 12:07:00;;;;;;;2.35;1.70;;;20.90;54.80;;;;;;4994960;28;20263;-70
2021/12/31 12:09:41;;;;;;;1.58;1.40;;;20.90;54.80;;;;;;5011178;28;20220;-70
2021/12/31 12:12:21;;;;;;;1.50;1.30;;;20.90;54.80;;;;;;4995966;28;20228;-70
2021/12/31 12:14:53;;;;;;;1.77;1.35;;;20.90;54.80;;;;;;4994384;28;20227;-70
2021/12/31 12:17:31;;;;;;;6.25;1.70;;;20.90;54.80;;;;;;5010924;28;20248;-70
2021/12/31 12:20:03;;;;;;;2.63;1.58;;;20.90;54.80;;;;;;4998404;28;20181;-70
2021/12/31 12:22:49;;;;;;;1.85;1.35;;;20.90;54.80;;;;;;5002944;28;20197;-69
2021/12/31 12:25:24;;;;;;;1.27;1.17;;;20.90;54.70;;;;;;4995459;28;20215;-70
2021/12/31 12:27:56;;;;;;;2.10;1.40;;;21.00;54.80;;;;;;4994422;28;20173;-70
2021/12/31 12:30:23;;;;;;;2.05;1.30;;;20.90;54.80;;;;;;4994861;28;20230;-69
2021/12/31 12:35:33;;;;;;;1.92;1.40;;;20.90;54.70;;;;;;4993965;28;20216;-70
2021/12/31 12:38:10;;;;;;;2.40;1.40;;;20.90;54.70;;;;;;4992259;28;20236;-74
2021/12/31 12:40:43;;;;;;;1.90;1.50;;;20.90;54.70;;;;;;4994365;28;20176;-68
2021/12/31 12:43:35;;;;;;;2.72;1.50;;;21.00;54.80;;;;;;4995919;28;20216;-70
2021/12/31 12:46:12;;;;;;;2.25;1.65;;;20.90;55.00;;;;;;4977963;28;20205;-71
2021/12/31 12:48:59;;;;;;;2.15;1.58;;;21.00;55.00;;;;;;4995626;28;20192;-71
2021/12/31 12:51:30;;;;;;;1.80;1.20;;;20.90;55.20;;;;;;4976407;28;20572;-70
2021/12/31 12:54:02;;;;;;;2.15;1.50;;;20.90;55.20;;;;;;4961524;28;20185;-71
2021/12/31 12:56:27;;;;;;;1.80;1.40;;;20.90;55.10;;;;;;4988318;28;20296;-71
2021/12/31 12:58:57;;;;;;;1.20;1.10;;;20.90;55.10;;;;;;4982350;28;20284;-70
2021/12/31 13:01:43;;;;;;;3.83;1.55;;;21.00;55.10;;;;;;4995062;28;20280;-70
2021/12/31 13:04:16;;;;;;;1.55;1.30;;;20.90;55.00;;;;;;4977833;28;20192;-70
2021/12/31 13:07:02;;;;;;;3.85;1.17;;;21.00;55.10;;;;;;4977583;28;20288;-69
2021/12/31 13:09:31;;;;;;;2.20;1.27;;;20.90;55.00;;;;;;4994955;28;20179;-71